createdAt,value
2022-11-08T00:01:52.099Z,16.63
2022-11-08T00:04:54.849Z,14.88
2022-11-08T00:08:16.233Z,15.15
2022-11-08T00:11:37.813Z,12.18
2022-11-08T00:14:40.293Z,14.80
2022-11-08T00:17:43.069Z,14.82
2022-11-08T00:20:49.650Z,14.32
2022-11-08T00:23:52.771Z,14.87
2022-11-08T00:26:55.317Z,16.08
2022-11-08T00:29:57.971Z,15.90
2022-11-08T00:33:00.508Z,15.82
2022-11-08T00:36:03.991Z,15.88
2022-11-08T00:39:06.765Z,13.77
2022-11-08T00:42:09.641Z,14.10
2022-11-08T00:45:12.017Z,13.77
2022-11-08T00:48:15.056Z,14.77
2022-11-08T00:51:17.599Z,14.38
2022-11-08T00:54:21.331Z,14.27
2022-11-08T00:57:35.917Z,15.52
2022-11-08T01:00:46.778Z,15.23
2022-11-08T01:03:50.131Z,14.73
2022-11-08T01:06:53.041Z,15.07
2022-11-08T01:09:55.522Z,16.25
2022-11-08T01:12:58.659Z,14.80
2022-11-08T01:16:16.978Z,15.73
2022-11-08T01:19:19.857Z,15.52
2022-11-08T01:22:22.227Z,14.63
2022-11-08T01:25:24.943Z,12.73
2022-11-08T01:28:27.729Z,13.15
2022-11-08T01:31:32.271Z,12.65
2022-11-08T01:34:35.111Z,13.27
2022-11-08T01:37:37.782Z,13.05
2022-11-08T01:40:46.378Z,13.13
2022-11-08T01:43:51.279Z,12.07
2022-11-08T01:46:53.741Z,11.70
2022-11-08T01:50:02.546Z,12.13
2022-11-08T01:53:04.974Z,12.18
2022-11-08T01:56:11.166Z,13.27
2022-11-08T01:59:18.152Z,12.77
2022-11-08T02:02:21.363Z,13.55
2022-11-08T02:05:27.525Z,12.13
2022-11-08T02:08:38.595Z,11.63
2022-11-08T02:11:41.998Z,11.60
2022-11-08T02:14:44.726Z,11.93
2022-11-08T02:17:47.176Z,10.47
2022-11-08T02:21:20.609Z,11.48
2022-11-08T02:24:23.109Z,11.88
2022-11-08T02:27:26.322Z,11.27
2022-11-08T02:30:35.741Z,11.38
2022-11-08T02:33:38.892Z,11.70
2022-11-08T02:36:44.085Z,11.85
2022-11-08T02:39:48.225Z,12.18
2022-11-08T02:42:51.221Z,10.95
2022-11-08T02:45:54.289Z,11.60
2022-11-08T02:48:56.850Z,9.47
2022-11-08T02:52:00.038Z,11.65
2022-11-08T02:55:02.478Z,11.27
2022-11-08T02:58:05.632Z,11.27
2022-11-08T03:01:08.316Z,11.73
2022-11-08T03:04:11.081Z,11.07
2022-11-08T03:07:13.662Z,11.05
2022-11-08T03:10:16.594Z,12.70
2022-11-08T03:13:19.059Z,8.95
2022-11-08T03:16:21.818Z,10.20
2022-11-08T03:19:24.181Z,11.93
2022-11-08T03:22:27.270Z,10.82
2022-11-08T03:25:30.027Z,11.80
2022-11-08T03:28:33.961Z,10.40
2022-11-08T03:31:36.653Z,10.63
2022-11-08T03:34:39.400Z,11.00
2022-11-08T03:37:49.022Z,9.70
2022-11-08T03:40:51.847Z,12.10
2022-11-08T03:43:54.740Z,10.77
2022-11-08T03:46:57.450Z,11.55
2022-11-08T03:49:59.743Z,10.90
2022-11-08T03:53:02.467Z,10.85
2022-11-08T03:56:05.090Z,11.15
2022-11-08T03:59:08.171Z,12.00
2022-11-08T04:02:10.937Z,10.07
2022-11-08T04:05:14.964Z,9.80
2022-11-08T04:08:18.092Z,10.48
2022-11-08T04:11:39.663Z,10.60
2022-11-08T04:15:00.856Z,10.77
2022-11-08T04:18:22.373Z,9.45
2022-11-08T04:21:25.125Z,9.83
2022-11-08T04:24:28.162Z,9.32
2022-11-08T04:27:30.561Z,9.13
2022-11-08T04:30:33.871Z,10.63
2022-11-08T04:33:36.597Z,10.75
2022-11-08T04:36:39.418Z,10.57
2022-11-08T04:39:42.031Z,9.82
2022-11-08T04:42:45.178Z,9.90
2022-11-08T04:45:47.935Z,10.80
2022-11-08T04:48:52.535Z,10.75
2022-11-08T04:51:54.886Z,11.67
2022-11-08T04:54:57.816Z,10.52
2022-11-08T04:58:00.216Z,10.68
2022-11-08T05:01:04.170Z,11.47
2022-11-08T05:04:06.829Z,10.93
2022-11-08T05:07:09.377Z,12.80
2022-11-08T05:10:11.979Z,11.52
2022-11-08T05:13:14.575Z,12.30
2022-11-08T05:16:20.109Z,12.50
2022-11-08T05:19:41.457Z,10.93
2022-11-08T05:23:02.544Z,11.67
2022-11-08T05:26:05.857Z,12.50
2022-11-08T05:29:08.802Z,12.07
2022-11-08T05:32:11.723Z,12.13
2022-11-08T05:35:14.238Z,11.52
2022-11-08T05:38:18.349Z,11.75
2022-11-08T05:41:23.186Z,11.27
2022-11-08T05:44:25.756Z,12.68
2022-11-08T05:47:28.510Z,12.45
2022-11-08T05:50:35.318Z,11.52
2022-11-08T05:53:49.755Z,11.40
2022-11-08T05:56:52.468Z,11.30
2022-11-08T05:59:54.792Z,11.30
2022-11-08T06:02:57.612Z,13.17
2022-11-08T06:06:05.044Z,12.30
2022-11-08T06:09:07.561Z,11.73
2022-11-08T06:12:10.351Z,12.32
2022-11-08T06:15:12.950Z,12.43
2022-11-08T06:18:15.422Z,12.60
2022-11-08T06:21:19.919Z,11.73
2022-11-08T06:24:22.861Z,11.53
2022-11-08T06:27:25.455Z,12.57
2022-11-08T06:30:29.463Z,10.68
2022-11-08T06:33:32.771Z,11.30
2022-11-08T06:36:35.189Z,10.77
2022-11-08T06:39:37.647Z,11.63
2022-11-08T06:42:40.082Z,11.07
2022-11-08T06:45:42.542Z,12.38
2022-11-08T06:48:45.170Z,11.55
2022-11-08T06:51:47.650Z,11.85
2022-11-08T06:54:50.112Z,12.43
2022-11-08T06:57:52.735Z,9.25
2022-11-08T07:00:55.603Z,9.93
2022-11-08T07:03:58.034Z,10.13
2022-11-08T07:07:00.881Z,12.30
2022-11-08T07:10:05.280Z,11.85
2022-11-08T07:13:10.905Z,11.20
2022-11-08T07:16:14.192Z,9.55
2022-11-08T07:19:16.873Z,11.50
2022-11-08T07:22:19.450Z,9.85
2022-11-08T07:25:22.020Z,11.23
2022-11-08T07:28:24.540Z,8.77
2022-11-08T07:31:27.778Z,9.27
2022-11-08T07:34:31.718Z,13.20
2022-11-08T07:37:34.299Z,10.00
2022-11-08T07:40:36.846Z,11.90
2022-11-08T07:43:39.367Z,9.57
2022-11-08T07:46:45.881Z,10.02
2022-11-08T07:49:48.804Z,9.30
2022-11-08T07:52:51.422Z,8.43
2022-11-08T07:55:55.146Z,9.17
2022-11-08T07:58:57.852Z,10.38
2022-11-08T08:02:01.060Z,10.65
2022-11-08T08:05:03.970Z,9.90
2022-11-08T08:08:06.708Z,10.35
2022-11-08T08:11:09.862Z,8.98
2022-11-08T08:14:12.412Z,10.10
2022-11-08T08:17:15.508Z,10.57
2022-11-08T08:20:18.155Z,9.73
2022-11-08T08:23:20.951Z,10.43
2022-11-08T08:26:23.693Z,9.90
2022-11-08T08:29:26.264Z,13.73
2022-11-08T08:32:31.525Z,13.80
2022-11-08T08:35:38.961Z,12.70
2022-11-08T08:38:44.711Z,12.30
2022-11-08T08:41:47.885Z,11.02
2022-11-08T08:44:50.359Z,10.57
2022-11-08T08:47:58.556Z,9.63
2022-11-08T08:51:02.549Z,9.98
2022-11-08T08:54:06.338Z,9.52
2022-11-08T08:57:08.899Z,10.33
2022-11-08T09:03:36.125Z,9.95
2022-11-08T09:06:38.894Z,11.37
2022-11-08T09:09:41.448Z,10.05
2022-11-08T09:12:44.589Z,10.80
2022-11-08T09:15:47.122Z,10.38
2022-11-08T09:18:49.795Z,10.77
2022-11-08T09:21:52.425Z,11.55
2022-11-08T09:24:55.111Z,10.82
2022-11-08T09:27:57.542Z,10.43
2022-11-08T09:31:12.313Z,9.98
2022-11-08T09:34:17.604Z,10.43
2022-11-08T09:37:24.201Z,10.00
2022-11-08T09:40:48.852Z,10.50
2022-11-08T09:44:03.822Z,10.95
2022-11-08T09:47:24.212Z,11.02
2022-11-08T09:50:34.752Z,12.65
2022-11-08T09:53:52.176Z,9.52
2022-11-08T09:56:55.854Z,9.38
2022-11-08T10:00:06.117Z,9.20
2022-11-08T10:03:15.751Z,9.55
2022-11-08T10:06:49.120Z,8.18
2022-11-08T10:09:54.238Z,8.73
2022-11-08T10:13:52.490Z,12.38
2022-11-08T10:17:19.927Z,10.17
2022-11-08T10:20:44.771Z,11.02
2022-11-08T10:24:03.063Z,12.68
2022-11-08T10:27:16.260Z,11.90
2022-11-08T10:30:26.167Z,11.82
2022-11-08T10:33:45.731Z,12.37
2022-11-08T10:36:51.576Z,10.80
2022-11-08T10:40:17.402Z,12.43
2022-11-08T10:43:30.094Z,11.70
2022-11-08T10:47:03.390Z,12.20
2022-11-08T10:50:21.085Z,12.30
2022-11-08T10:53:29.335Z,12.18
2022-11-08T10:56:34.258Z,13.30
2022-11-08T10:59:40.658Z,12.80
2022-11-08T11:02:45.021Z,11.80
2022-11-08T11:06:02.368Z,12.67
2022-11-08T11:09:20.663Z,12.95
2022-11-08T11:12:23.115Z,12.48
2022-11-08T11:15:35.554Z,19.77
2022-11-08T11:18:50.585Z,21.70
2022-11-08T11:21:57.649Z,16.67
2022-11-08T11:25:07.701Z,16.90
2022-11-08T11:28:14.251Z,15.75
2022-11-08T11:31:17.051Z,15.30
2022-11-08T11:34:19.685Z,13.25
2022-11-08T11:37:30.998Z,13.63
2022-11-08T11:40:44.314Z,13.52
2022-11-08T11:44:13.068Z,14.20
2022-11-08T11:47:29.050Z,17.20
2022-11-08T11:50:40.566Z,13.38
2022-11-08T11:53:48.457Z,13.43
2022-11-08T11:57:02.489Z,15.65
2022-11-08T12:00:13.740Z,15.38
2022-11-08T12:03:19.564Z,15.02
2022-11-08T12:06:41.020Z,15.68
2022-11-08T12:09:53.738Z,15.43
2022-11-08T12:13:15.307Z,14.63
2022-11-08T12:16:26.104Z,16.23
2022-11-08T12:20:27.474Z,15.40
2022-11-08T12:23:52.810Z,14.63
2022-11-08T12:27:04.535Z,15.52
2022-11-08T12:30:40.537Z,16.15
2022-11-08T12:34:02.544Z,16.23
2022-11-08T12:37:14.377Z,31.95
2022-11-08T12:40:41.551Z,19.80
2022-11-08T12:44:14.873Z,19.60
2022-11-08T12:47:41.848Z,27.60
2022-11-08T12:51:01.740Z,37.80
2022-11-08T12:54:22.733Z,21.30
2022-11-08T12:57:28.408Z,21.52
2022-11-08T13:00:32.828Z,20.23
2022-11-08T13:03:47.094Z,25.42
2022-11-08T13:07:00.082Z,21.70
2022-11-08T13:10:47.609Z,21.63
2022-11-08T13:13:51.598Z,22.67
2022-11-08T13:17:09.029Z,21.87
2022-11-08T13:20:46.086Z,25.35
2022-11-08T13:23:48.670Z,24.23
2022-11-08T13:26:53.742Z,21.47
2022-11-08T13:30:25.515Z,23.23
2022-11-08T13:33:32.318Z,22.60
2022-11-08T13:36:56.134Z,24.08
2022-11-08T13:40:21.931Z,22.10
2022-11-08T13:43:30.206Z,25.15
2022-11-08T13:46:32.690Z,28.95
2022-11-08T13:49:35.058Z,29.33
2022-11-08T13:53:02.047Z,25.10
2022-11-08T13:56:04.351Z,30.42
2022-11-08T13:59:32.623Z,33.33
2022-11-08T14:02:35.543Z,24.65
2022-11-08T14:05:47.188Z,23.27
2022-11-08T14:09:18.593Z,23.10
2022-11-08T14:12:37.494Z,22.55
2022-11-08T14:15:57.120Z,22.63
2022-11-08T14:19:22.509Z,21.55
2022-11-08T14:22:29.642Z,30.43
2022-11-08T14:25:35.824Z,27.88
2022-11-08T14:28:41.630Z,23.38
2022-11-08T14:31:45.197Z,26.60
2022-11-08T14:34:47.622Z,27.77
2022-11-08T14:37:50.609Z,25.02
2022-11-08T14:40:56.153Z,27.23
2022-11-08T14:44:00.603Z,23.52
2022-11-08T14:47:04.129Z,24.90
2022-11-08T14:50:17.350Z,26.90
2022-11-08T14:53:27.188Z,24.97
2022-11-08T14:56:38.282Z,26.23
2022-11-08T14:59:40.865Z,28.00
2022-11-08T15:02:47.523Z,32.07
2022-11-08T15:06:30.459Z,31.98
2022-11-08T15:09:35.686Z,32.60
2022-11-08T15:12:42.691Z,35.25
2022-11-08T15:15:54.311Z,25.38
2022-11-08T15:19:18.344Z,23.60
2022-11-08T15:22:33.403Z,26.52
2022-11-08T15:25:38.186Z,23.23
2022-11-08T15:28:40.665Z,32.88
2022-11-08T15:31:48.971Z,24.25
2022-11-08T15:34:56.207Z,24.73
2022-11-08T15:38:18.277Z,25.50
2022-11-08T15:41:30.281Z,30.63
2022-11-08T15:44:32.666Z,24.17
2022-11-08T15:47:37.356Z,23.33
2022-11-08T15:50:40.177Z,26.58
2022-11-08T15:53:42.711Z,25.92
2022-11-08T15:56:46.529Z,37.33
2022-11-08T15:59:49.518Z,41.10
2022-11-08T16:02:52.950Z,25.73
2022-11-08T16:05:56.118Z,22.23
2022-11-08T16:08:58.525Z,38.15
2022-11-08T16:12:03.339Z,24.65
2022-11-08T16:15:06.462Z,28.40
2022-11-08T16:18:12.306Z,23.90
2022-11-08T16:21:15.509Z,29.60
2022-11-08T16:24:19.157Z,37.10
2022-11-08T16:27:21.834Z,37.07
2022-11-08T16:30:24.640Z,33.95
2022-11-08T16:33:29.561Z,32.40
2022-11-08T16:36:32.461Z,46.13
2022-11-08T16:39:35.206Z,51.60
2022-11-08T16:42:38.206Z,27.23
2022-11-08T16:46:04.275Z,33.35
2022-11-08T16:49:05.759Z,24.92
2022-11-08T16:52:10.610Z,28.13
2022-11-08T16:55:17.599Z,29.05
2022-11-08T16:58:21.216Z,27.60
2022-11-08T17:01:32.185Z,28.85
2022-11-08T17:04:34.799Z,27.23
2022-11-08T17:07:37.746Z,27.97
2022-11-08T17:10:40.851Z,27.95
2022-11-08T17:13:43.708Z,38.47
2022-11-08T17:16:48.241Z,41.00
2022-11-08T17:19:51.010Z,27.02
2022-11-08T17:22:54.351Z,26.50
2022-11-08T17:25:57.375Z,26.50
2022-11-08T17:29:00.522Z,32.27
2022-11-08T17:32:03.620Z,31.35
2022-11-08T17:35:07.929Z,27.48
2022-11-08T17:38:11.388Z,26.17
2022-11-08T17:41:15.345Z,27.45
2022-11-08T17:44:18.187Z,34.33
2022-11-08T17:47:21.085Z,27.17
2022-11-08T17:50:24.062Z,19.48
2022-11-08T17:53:26.969Z,22.52
2022-11-08T17:56:29.706Z,26.92
2022-11-08T17:59:32.423Z,25.43
2022-11-08T18:02:35.848Z,22.73
2022-11-08T18:05:39.550Z,23.83
2022-11-08T18:08:42.979Z,23.03
2022-11-08T18:11:47.953Z,21.48
2022-11-08T18:14:51.444Z,22.58
2022-11-08T18:17:55.591Z,25.38
2022-11-08T18:20:59.016Z,24.50
2022-11-08T18:24:01.927Z,24.70
2022-11-08T18:27:04.736Z,24.83
2022-11-08T18:30:07.764Z,23.83
2022-11-08T18:33:10.918Z,20.67
2022-11-08T18:36:15.480Z,19.95
2022-11-08T18:39:19.899Z,20.73
2022-11-08T18:42:22.523Z,21.05
2022-11-08T18:45:25.332Z,20.77
2022-11-08T18:48:28.759Z,21.23
2022-11-08T18:51:32.004Z,22.98
2022-11-08T18:54:34.822Z,29.73
2022-11-08T18:57:37.913Z,28.88
2022-11-08T19:00:40.860Z,33.20
2022-11-08T19:03:44.184Z,19.90
2022-11-08T19:06:54.358Z,18.30
2022-11-08T19:10:00.413Z,20.53
2022-11-08T19:13:04.608Z,18.55
2022-11-08T19:16:15.449Z,21.42
2022-11-08T19:19:23.662Z,21.55
2022-11-08T19:22:27.549Z,19.00
2022-11-08T19:25:31.281Z,20.98
2022-11-08T19:28:37.713Z,22.58
2022-11-08T19:31:42.595Z,22.87
2022-11-08T19:34:47.252Z,24.80
2022-11-08T19:37:50.006Z,20.75
2022-11-08T19:40:52.691Z,22.03
2022-11-08T19:43:55.585Z,20.70
2022-11-08T19:46:58.481Z,20.98
2022-11-08T19:50:01.054Z,19.13
2022-11-08T19:53:07.537Z,19.90
2022-11-08T19:56:13.767Z,20.20
2022-11-08T19:59:17.332Z,19.33
2022-11-08T20:02:20.020Z,21.40
2022-11-08T20:05:23.491Z,27.10
2022-11-08T20:08:26.199Z,27.17
2022-11-08T20:11:35.906Z,39.93
2022-11-08T20:14:38.236Z,32.38
2022-11-08T20:17:42.852Z,31.58
2022-11-08T20:20:45.635Z,23.80
2022-11-08T20:23:49.037Z,38.70
2022-11-08T20:26:51.790Z,31.42
2022-11-08T20:29:55.885Z,32.90
2022-11-08T20:32:58.649Z,21.87
2022-11-08T20:36:06.354Z,28.45
2022-11-08T20:39:11.168Z,49.78
2022-11-08T20:42:13.844Z,22.87
2022-11-08T20:45:16.454Z,22.05
2022-11-08T20:48:20.045Z,26.88
2022-11-08T20:51:23.083Z,33.67
2022-11-08T20:54:26.154Z,29.15
2022-11-08T20:57:29.100Z,25.77
2022-11-08T21:00:57.351Z,24.55
2022-11-08T21:03:55.237Z,34.17
2022-11-08T21:07:59.299Z,28.25
2022-11-08T21:10:42.289Z,22.40
2022-11-08T21:13:46.722Z,20.97
2022-11-08T21:20:13.974Z,21.02
2022-11-08T21:23:17.142Z,21.40
2022-11-08T21:26:20.217Z,19.42
2022-11-08T21:29:23.301Z,17.77
2022-11-08T21:32:26.231Z,18.92
2022-11-08T21:35:28.819Z,17.67
2022-11-08T21:38:32.030Z,17.58
2022-11-08T21:41:34.525Z,17.50
2022-11-08T21:44:37.314Z,16.17
2022-11-08T21:47:39.849Z,16.35
2022-11-08T21:50:42.739Z,15.40
2022-11-08T21:53:54.076Z,16.17
2022-11-08T21:56:57.651Z,20.73
2022-11-08T22:00:00.276Z,21.05
2022-11-08T22:03:02.853Z,19.52
2022-11-08T22:06:05.718Z,19.13
2022-11-08T22:09:08.505Z,22.17
2022-11-08T22:12:11.277Z,17.70
2022-11-08T22:15:13.962Z,19.50
2022-11-08T22:18:22.780Z,21.77
2022-11-08T22:21:41.383Z,18.90
2022-11-08T22:24:43.999Z,22.05
2022-11-08T22:27:46.918Z,18.27
2022-11-08T22:30:53.005Z,18.23
2022-11-08T22:33:55.823Z,18.38
2022-11-08T22:36:58.367Z,16.50
2022-11-08T22:40:00.994Z,17.55
2022-11-08T22:43:03.592Z,18.27
2022-11-08T22:46:06.358Z,17.40
2022-11-08T22:49:09.877Z,16.20
2022-11-08T22:52:12.522Z,17.50
2022-11-08T22:55:14.840Z,16.50
2022-11-08T22:58:17.746Z,19.05
2022-11-08T23:01:20.284Z,18.85
2022-11-08T23:04:22.997Z,18.70
2022-11-08T23:07:25.534Z,18.23
2022-11-08T23:10:28.549Z,18.45
2022-11-08T23:13:51.414Z,18.35
2022-11-08T23:16:54.210Z,17.63
2022-11-08T23:20:14.890Z,20.48
2022-11-08T23:23:36.269Z,17.55
2022-11-08T23:26:57.247Z,16.42
2022-11-08T23:30:18.613Z,15.35
2022-11-08T23:33:21.807Z,17.00
2022-11-08T23:36:27.987Z,17.10
2022-11-08T23:39:30.987Z,16.53
2022-11-08T23:42:51.902Z,16.25
2022-11-08T23:45:54.618Z,17.20
2022-11-08T23:48:57.226Z,17.03
2022-11-08T23:51:59.637Z,16.30
2022-11-08T23:55:03.393Z,17.80
2022-11-08T23:58:05.776Z,16.98
